McCook, NE

7:47 AM CST on February 06, 2016 (GMT -0600)
McCook Municipal | | Change Station
CLOSE
Current Station
Airport
Location: McCook,
Elevation: 2579 ft
Nearby Weather Stations

Elev 2579 ft 40.20 °N, 100.59 °W | Updated 54 minutes ago

Clear
Clear
13 °F
Feels Like 0 °F
N
10
Wind Variable Wind from WSW

Today
High -- | Low -- °F
--% Chance of Precip.
Yesterday
High -- | Low -- °F
Precip. -- in
Pressure 30.35 in
Visibility 10.0 miles
Clouds Clear
Windchill 0 °F
Dew Point 8 °F
Humidity 81%
Rainfall 0.00 in
Snow Depth Not available.
7:46 AM 6:07 PM
Waning Crescent, 5% visible
METAR KMCK 061253Z AUTO 25009KT 10SM CLR M11/M13 A3025 RMK AO2 SLP278 T11061133
Pressure 30.35 in
Visibility 10.0 miles
Clouds Clear
Windchill 0 °F
Dew Point 8 °F
Humidity 81%
Rainfall 0.00 in
Snow Depth Not available.
7:46 AM 6:07 PM
Waning Crescent, 5% visible
METAR KMCK 061253Z AUTO 25009KT 10SM CLR M11/M13 A3025 RMK AO2 SLP278 T11061133

10-Day Weather Forecast

Almanac

Astronomy

Feb. 06, 2016 Rise Set
Actual Time
Civil Twilight
Nautical Twilight
Astronomical Twilight
Moon
Length of Visible Light
Length of Day
Tomorrow will be .
, % of the Moon is Illuminated

Today's Extremes

State Highs State Lows

Community

WunderPhotos

Upload Photos

1,890,971 photos uploaded!

WunderBlog® & News

Nearby

Air Quality

  Air Quality AQ Index Pollutant
Not available.

Snow Depth

Station Depth Elevation

Earthquake Activity

City Distance Mag. Time & Date
Minimum magnitude displayed is 2.5.

Coastal Water Temperatures

Place Temperature

Stations

Nearby Weather Stations

Station Location Temp. Windchill Dew Point Humidity Wind Precip. Elev Updated Type
                   

Watches & Warnings

There are currently no watches in effect.